Карточка аэропорта UUYY

Внимание!
Информация на этой странице в стадии наполнения.
Если вы не увидели какой-то информации, или заметили неточность - пожалуйста сообщите нам!
Спасибо!
Команда RU-STAFF
Название аэропортаСыктывкар
Название аэропорта (англ.)Syktyvkar
Превышение339 ft. (103.3 m.)
Координаты61°38.502', 50°50.298'
Высота перехода3000 feet
Эшелон переходаQNH>=1013hPa:FL040; QNH<1013hPa:FL050; QNH<977hPa:FL060
Коды ответчика3130-3134, 5752-5757, 5770-5777, 6701-6717
Зона ОрВДСанкт-Петербург РПИ (ULLL)
Данные METARUUYY 010700Z VRB01MPS 9999 SCT004 OVC010 M05/M05 Q1043 R36/520239 NOSIG RMK QBB120 QFE773/1030
Проноз погоды (TAF)UUYY 010500Z 0106/0206 09003MPS 3100 -SN BR BKN003 TEMPO 0106/0109 0300 SHSN FZDZ FZFG BKN002 BKN016CB FM010900 09003MPS 6000 -SN BKN005 TEMPO 0109/0206 0300 SHSN FZDZ FZFG BKN002 BKN016CB BECMG 0118/0120 15003MPS
NOTAMshow/hide NOTAM
AWOS   TABLE

Информация о ВПП

ВПП Длина ВПП (м.) Покрытие Курс ВПП Частота ILS
192500Асфальтобетон186111.7
012500Асфальтобетон6108.3

Диспетчерские позиции

Позывной Наименование органа УВД Частота
UUYY_TWRСивкар-Старт124.600
UUYY_R_APPСивкар-Круг124.600



Спутниковое изображение